sensor_id;sensor_type;location;lat;lon;timestamp;P1;durP1;ratioP1;P2;durP2;ratioP2
18738;SDS011;9498;51.862;19.460;2023-04-01T00:01:14;39.93;;;18.60;;
18738;SDS011;9498;51.862;19.460;2023-04-01T00:03:42;39.70;;;18.90;;
18738;SDS011;9498;51.862;19.460;2023-04-01T00:06:09;46.95;;;23.33;;
18738;SDS011;9498;51.862;19.460;2023-04-01T00:08:38;38.83;;;19.83;;
18738;SDS011;9498;51.862;19.460;2023-04-01T00:11:05;40.60;;;19.37;;
18738;SDS011;9498;51.862;19.460;2023-04-01T00:13:32;46.70;;;20.30;;
18738;SDS011;9498;51.862;19.460;2023-04-01T00:16:02;45.67;;;20.33;;
18738;SDS011;9498;51.862;19.460;2023-04-01T00:18:30;41.83;;;20.70;;
18738;SDS011;9498;51.862;19.460;2023-04-01T00:20:57;42.87;;;19.57;;
18738;SDS011;9498;51.862;19.460;2023-04-01T00:23:25;42.43;;;19.20;;
18738;SDS011;9498;51.862;19.460;2023-04-01T00:25:52;45.37;;;19.87;;
18738;SDS011;9498;51.862;19.460;2023-04-01T00:28:19;38.30;;;18.67;;
18738;SDS011;9498;51.862;19.460;2023-04-01T00:30:47;40.40;;;18.93;;
18738;SDS011;9498;51.862;19.460;2023-04-01T00:33:16;39.00;;;18.27;;
18738;SDS011;9498;51.862;19.460;2023-04-01T00:35:43;35.63;;;17.20;;
18738;SDS011;9498;51.862;19.460;2023-04-01T00:38:10;37.73;;;17.23;;
18738;SDS011;9498;51.862;19.460;2023-04-01T00:40:38;36.63;;;17.23;;
18738;SDS011;9498;51.862;19.460;2023-04-01T00:43:09;35.67;;;16.60;;
18738;SDS011;9498;51.862;19.460;2023-04-01T00:45:38;29.63;;;15.10;;
18738;SDS011;9498;51.862;19.460;2023-04-01T00:48:07;32.80;;;14.73;;
18738;SDS011;9498;51.862;19.460;2023-04-01T00:50:37;29.27;;;14.90;;
18738;SDS011;9498;51.862;19.460;2023-04-01T00:53:07;32.27;;;16.03;;
18738;SDS011;9498;51.862;19.460;2023-04-01T00:55:35;32.70;;;15.57;;
18738;SDS011;9498;51.862;19.460;2023-04-01T00:58:05;34.57;;;16.40;;
18738;SDS011;9498;51.862;19.460;2023-04-01T01:00:34;36.50;;;18.15;;
18738;SDS011;9498;51.862;19.460;2023-04-01T01:03:03;31.67;;;16.07;;
18738;SDS011;9498;51.862;19.460;2023-04-01T01:05:32;32.90;;;15.50;;
18738;SDS011;9498;51.862;19.460;2023-04-01T01:08:07;29.23;;;14.80;;
18738;SDS011;9498;51.862;19.460;2023-04-01T01:10:39;28.33;;;14.20;;
18738;SDS011;9498;51.862;19.460;2023-04-01T01:13:09;28.57;;;14.70;;
18738;SDS011;9498;51.862;19.460;2023-04-01T01:15:37;32.67;;;15.23;;
18738;SDS011;9498;51.862;19.460;2023-04-01T01:18:07;30.27;;;15.03;;
18738;SDS011;9498;51.862;19.460;2023-04-01T01:20:44;29.93;;;15.17;;
18738;SDS011;9498;51.862;19.460;2023-04-01T01:23:21;31.90;;;14.90;;
18738;SDS011;9498;51.862;19.460;2023-04-01T01:25:52;33.80;;;16.33;;
18738;SDS011;9498;51.862;19.460;2023-04-01T01:28:26;33.73;;;16.00;;
18738;SDS011;9498;51.862;19.460;2023-04-01T01:30:58;33.40;;;16.50;;
18738;SDS011;9498;51.862;19.460;2023-04-01T01:36:12;34.47;;;16.53;;
18738;SDS011;9498;51.862;19.460;2023-04-01T01:38:40;34.97;;;17.23;;
18738;SDS011;9498;51.862;19.460;2023-04-01T01:41:07;36.07;;;17.20;;
18738;SDS011;9498;51.862;19.460;2023-04-01T01:43:36;39.90;;;17.37;;
18738;SDS011;9498;51.862;19.460;2023-04-01T01:46:05;37.07;;;17.33;;
18738;SDS011;9498;51.862;19.460;2023-04-01T01:48:34;35.53;;;16.93;;
18738;SDS011;9498;51.862;19.460;2023-04-01T01:51:02;36.40;;;16.77;;
18738;SDS011;9498;51.862;19.460;2023-04-01T01:53:31;33.27;;;16.20;;
18738;SDS011;9498;51.862;19.460;2023-04-01T01:55:58;38.83;;;17.40;;
18738;SDS011;9498;51.862;19.460;2023-04-01T01:58:27;34.87;;;17.37;;
18738;SDS011;9498;51.862;19.460;2023-04-01T02:00:56;35.87;;;16.57;;
18738;SDS011;9498;51.862;19.460;2023-04-01T02:03:24;39.55;;;20.35;;
18738;SDS011;9498;51.862;19.460;2023-04-01T02:05:52;37.43;;;17.77;;
18738;SDS011;9498;51.862;19.460;2023-04-01T02:08:21;37.53;;;17.53;;
18738;SDS011;9498;51.862;19.460;2023-04-01T02:10:52;37.20;;;18.03;;
18738;SDS011;9498;51.862;19.460;2023-04-01T02:13:24;40.80;;;19.37;;
18738;SDS011;9498;51.862;19.460;2023-04-01T02:15:53;46.63;;;21.33;;
18738;SDS011;9498;51.862;19.460;2023-04-01T02:18:22;44.97;;;20.43;;
18738;SDS011;9498;51.862;19.460;2023-04-01T02:20:49;51.47;;;23.40;;
18738;SDS011;9498;51.862;19.460;2023-04-01T02:23:17;51.13;;;22.93;;
18738;SDS011;9498;51.862;19.460;2023-04-01T02:25:44;65.90;;;30.05;;
18738;SDS011;9498;51.862;19.460;2023-04-01T02:28:13;54.47;;;24.97;;
18738;SDS011;9498;51.862;19.460;2023-04-01T02:30:44;58.67;;;25.77;;
18738;SDS011;9498;51.862;19.460;2023-04-01T02:33:12;58.07;;;24.90;;
18738;SDS011;9498;51.862;19.460;2023-04-01T02:35:39;58.00;;;25.17;;
18738;SDS011;9498;51.862;19.460;2023-04-01T02:38:07;56.43;;;25.53;;
18738;SDS011;9498;51.862;19.460;2023-04-01T02:40:44;65.87;;;26.47;;
18738;SDS011;9498;51.862;19.460;2023-04-01T02:43:13;62.60;;;26.63;;
18738;SDS011;9498;51.862;19.460;2023-04-01T02:45:41;66.70;;;26.97;;
18738;SDS011;9498;51.862;19.460;2023-04-01T02:48:08;67.77;;;27.87;;
18738;SDS011;9498;51.862;19.460;2023-04-01T02:50:36;72.30;;;28.97;;
18738;SDS011;9498;51.862;19.460;2023-04-01T02:53:03;68.87;;;29.83;;
18738;SDS011;9498;51.862;19.460;2023-04-01T02:55:31;69.23;;;28.77;;
18738;SDS011;9498;51.862;19.460;2023-04-01T02:57:58;69.77;;;28.37;;
18738;SDS011;9498;51.862;19.460;2023-04-01T03:00:27;71.28;;;28.83;;
18738;SDS011;9498;51.862;19.460;2023-04-01T03:02:54;63.30;;;27.37;;
18738;SDS011;9498;51.862;19.460;2023-04-01T03:05:22;55.03;;;25.40;;
18738;SDS011;9498;51.862;19.460;2023-04-01T03:07:49;59.30;;;26.70;;
18738;SDS011;9498;51.862;19.460;2023-04-01T03:10:16;61.27;;;25.80;;
18738;SDS011;9498;51.862;19.460;2023-04-01T03:12:43;56.30;;;25.63;;
18738;SDS011;9498;51.862;19.460;2023-04-01T03:15:11;55.63;;;25.27;;
18738;SDS011;9498;51.862;19.460;2023-04-01T03:17:41;55.77;;;25.07;;
18738;SDS011;9498;51.862;19.460;2023-04-01T03:20:09;53.77;;;24.37;;
18738;SDS011;9498;51.862;19.460;2023-04-01T03:22:36;57.77;;;27.73;;
18738;SDS011;9498;51.862;19.460;2023-04-01T03:25:04;52.10;;;24.10;;
18738;SDS011;9498;51.862;19.460;2023-04-01T03:27:32;50.90;;;22.30;;
18738;SDS011;9498;51.862;19.460;2023-04-01T03:30:00;44.33;;;21.17;;
18738;SDS011;9498;51.862;19.460;2023-04-01T03:32:27;48.03;;;21.73;;
18738;SDS011;9498;51.862;19.460;2023-04-01T03:34:56;40.87;;;19.90;;
18738;SDS011;9498;51.862;19.460;2023-04-01T03:37:23;44.20;;;19.00;;
18738;SDS011;9498;51.862;19.460;2023-04-01T03:39:50;42.17;;;19.37;;
18738;SDS011;9498;51.862;19.460;2023-04-01T03:42:18;39.93;;;17.93;;
18738;SDS011;9498;51.862;19.460;2023-04-01T03:44:45;38.40;;;17.00;;
18738;SDS011;9498;51.862;19.460;2023-04-01T03:47:12;39.33;;;16.60;;
18738;SDS011;9498;51.862;19.460;2023-04-01T03:49:39;33.17;;;16.40;;
18738;SDS011;9498;51.862;19.460;2023-04-01T03:52:10;36.90;;;17.67;;
18738;SDS011;9498;51.862;19.460;2023-04-01T03:54:37;40.22;;;19.38;;
18738;SDS011;9498;51.862;19.460;2023-04-01T03:57:05;41.57;;;17.27;;
18738;SDS011;9498;51.862;19.460;2023-04-01T03:59:32;36.53;;;17.00;;
18738;SDS011;9498;51.862;19.460;2023-04-01T04:02:00;36.03;;;17.40;;
18738;SDS011;9498;51.862;19.460;2023-04-01T04:04:27;36.97;;;17.50;;
18738;SDS011;9498;51.862;19.460;2023-04-01T04:06:55;32.53;;;16.50;;
18738;SDS011;9498;51.862;19.460;2023-04-01T04:09:24;35.47;;;16.53;;
18738;SDS011;9498;51.862;19.460;2023-04-01T04:11:51;33.73;;;16.70;;
18738;SDS011;9498;51.862;19.460;2023-04-01T04:14:18;35.57;;;16.07;;
18738;SDS011;9498;51.862;19.460;2023-04-01T04:16:45;35.07;;;16.17;;
18738;SDS011;9498;51.862;19.460;2023-04-01T04:19:12;31.67;;;15.13;;
18738;SDS011;9498;51.862;19.460;2023-04-01T04:21:40;34.83;;;16.00;;
18738;SDS011;9498;51.862;19.460;2023-04-01T04:24:07;30.97;;;14.97;;
18738;SDS011;9498;51.862;19.460;2023-04-01T04:26:36;30.90;;;14.77;;
18738;SDS011;9498;51.862;19.460;2023-04-01T04:29:03;29.00;;;14.93;;
18738;SDS011;9498;51.862;19.460;2023-04-01T04:31:30;29.83;;;14.37;;
18738;SDS011;9498;51.862;19.460;2023-04-01T04:33:58;33.55;;;17.98;;
18738;SDS011;9498;51.862;19.460;2023-04-01T04:36:26;33.13;;;14.30;;
18738;SDS011;9498;51.862;19.460;2023-04-01T04:38:53;28.93;;;14.23;;
18738;SDS011;9498;51.862;19.460;2023-04-01T04:41:23;26.47;;;13.90;;
18738;SDS011;9498;51.862;19.460;2023-04-01T04:43:52;30.07;;;13.03;;
18738;SDS011;9498;51.862;19.460;2023-04-01T04:46:20;27.27;;;12.97;;
18738;SDS011;9498;51.862;19.460;2023-04-01T04:48:48;30.88;;;15.25;;
18738;SDS011;9498;51.862;19.460;2023-04-01T04:51:15;26.87;;;13.03;;
18738;SDS011;9498;51.862;19.460;2023-04-01T04:53:43;28.07;;;13.07;;
18738;SDS011;9498;51.862;19.460;2023-04-01T04:56:10;30.00;;;12.50;;
18738;SDS011;9498;51.862;19.460;2023-04-01T04:58:38;28.00;;;12.40;;
18738;SDS011;9498;51.862;19.460;2023-04-01T05:01:08;29.63;;;13.57;;
18738;SDS011;9498;51.862;19.460;2023-04-01T05:03:35;27.67;;;12.87;;
18738;SDS011;9498;51.862;19.460;2023-04-01T05:06:03;26.60;;;12.80;;
18738;SDS011;9498;51.862;19.460;2023-04-01T05:08:31;30.80;;;14.17;;
18738;SDS011;9498;51.862;19.460;2023-04-01T05:10:59;32.03;;;13.37;;
18738;SDS011;9498;51.862;19.460;2023-04-01T05:13:26;27.40;;;13.53;;
18738;SDS011;9498;51.862;19.460;2023-04-01T05:15:53;33.27;;;14.17;;
18738;SDS011;9498;51.862;19.460;2023-04-01T05:18:22;28.63;;;13.10;;
18738;SDS011;9498;51.862;19.460;2023-04-01T05:20:50;29.07;;;13.83;;
18738;SDS011;9498;51.862;19.460;2023-04-01T05:23:18;25.20;;;12.20;;
18738;SDS011;9498;51.862;19.460;2023-04-01T05:25:46;32.97;;;13.33;;
18738;SDS011;9498;51.862;19.460;2023-04-01T05:28:14;29.70;;;14.43;;
18738;SDS011;9498;51.862;19.460;2023-04-01T05:30:41;33.27;;;14.33;;
18738;SDS011;9498;51.862;19.460;2023-04-01T05:33:09;30.97;;;15.03;;
18738;SDS011;9498;51.862;19.460;2023-04-01T05:35:37;31.67;;;14.17;;
18738;SDS011;9498;51.862;19.460;2023-04-01T05:38:05;31.47;;;15.13;;
18738;SDS011;9498;51.862;19.460;2023-04-01T05:40:32;31.47;;;14.67;;
18738;SDS011;9498;51.862;19.460;2023-04-01T05:43:00;29.20;;;13.90;;
18738;SDS011;9498;51.862;19.460;2023-04-01T05:45:27;29.33;;;12.27;;
18738;SDS011;9498;51.862;19.460;2023-04-01T05:47:54;26.83;;;13.17;;
18738;SDS011;9498;51.862;19.460;2023-04-01T05:50:21;32.20;;;13.17;;
18738;SDS011;9498;51.862;19.460;2023-04-01T05:52:50;26.33;;;13.03;;
18738;SDS011;9498;51.862;19.460;2023-04-01T05:55:17;27.83;;;12.47;;
18738;SDS011;9498;51.862;19.460;2023-04-01T05:57:44;29.03;;;13.17;;
18738;SDS011;9498;51.862;19.460;2023-04-01T06:00:13;29.90;;;13.33;;
18738;SDS011;9498;51.862;19.460;2023-04-01T06:02:41;27.03;;;13.20;;
18738;SDS011;9498;51.862;19.460;2023-04-01T06:05:13;38.43;;;14.83;;
18738;SDS011;9498;51.862;19.460;2023-04-01T06:07:41;30.90;;;15.07;;
18738;SDS011;9498;51.862;19.460;2023-04-01T06:10:11;35.97;;;14.37;;
18738;SDS011;9498;51.862;19.460;2023-04-01T06:12:45;34.43;;;15.63;;
18738;SDS011;9498;51.862;19.460;2023-04-01T06:15:17;35.30;;;15.70;;
18738;SDS011;9498;51.862;19.460;2023-04-01T06:20:55;33.80;;;15.80;;
18738;SDS011;9498;51.862;19.460;2023-04-01T06:23:32;32.50;;;15.60;;
18738;SDS011;9498;51.862;19.460;2023-04-01T06:26:16;29.73;;;14.97;;
18738;SDS011;9498;51.862;19.460;2023-04-01T06:28:49;34.53;;;15.70;;
18738;SDS011;9498;51.862;19.460;2023-04-01T06:31:24;28.43;;;14.80;;
18738;SDS011;9498;51.862;19.460;2023-04-01T06:33:57;34.67;;;15.10;;
18738;SDS011;9498;51.862;19.460;2023-04-01T06:36:34;31.53;;;15.73;;
18738;SDS011;9498;51.862;19.460;2023-04-01T06:39:09;32.23;;;16.77;;
18738;SDS011;9498;51.862;19.460;2023-04-01T06:41:50;31.43;;;14.50;;
18738;SDS011;9498;51.862;19.460;2023-04-01T06:44:20;33.13;;;15.67;;
18738;SDS011;9498;51.862;19.460;2023-04-01T06:46:52;34.03;;;14.90;;
18738;SDS011;9498;51.862;19.460;2023-04-01T06:49:33;36.13;;;14.57;;
18738;SDS011;9498;51.862;19.460;2023-04-01T06:52:05;30.70;;;15.03;;
18738;SDS011;9498;51.862;19.460;2023-04-01T06:54:36;26.17;;;13.93;;
18738;SDS011;9498;51.862;19.460;2023-04-01T06:57:09;32.17;;;14.67;;
18738;SDS011;9498;51.862;19.460;2023-04-01T06:59:43;32.17;;;14.60;;
18738;SDS011;9498;51.862;19.460;2023-04-01T07:02:15;29.33;;;14.13;;
18738;SDS011;9498;51.862;19.460;2023-04-01T07:04:46;31.00;;;14.07;;
18738;SDS011;9498;51.862;19.460;2023-04-01T07:07:14;32.33;;;15.90;;
18738;SDS011;9498;51.862;19.460;2023-04-01T07:09:44;29.27;;;14.20;;
18738;SDS011;9498;51.862;19.460;2023-04-01T07:12:18;23.27;;;12.27;;
18738;SDS011;9498;51.862;19.460;2023-04-01T07:14:48;27.70;;;12.90;;
18738;SDS011;9498;51.862;19.460;2023-04-01T07:17:17;25.87;;;13.67;;
18738;SDS011;9498;51.862;19.460;2023-04-01T07:19:47;28.30;;;13.30;;
18738;SDS011;9498;51.862;19.460;2023-04-01T07:22:20;27.13;;;12.33;;
18738;SDS011;9498;51.862;19.460;2023-04-01T07:24:50;25.30;;;12.40;;
18738;SDS011;9498;51.862;19.460;2023-04-01T07:27:19;23.03;;;12.63;;
18738;SDS011;9498;51.862;19.460;2023-04-01T07:29:46;26.07;;;13.33;;
18738;SDS011;9498;51.862;19.460;2023-04-01T07:32:15;27.17;;;13.80;;
18738;SDS011;9498;51.862;19.460;2023-04-01T07:34:47;27.33;;;13.10;;
18738;SDS011;9498;51.862;19.460;2023-04-01T07:37:17;23.17;;;12.20;;
18738;SDS011;9498;51.862;19.460;2023-04-01T07:39:49;24.13;;;11.93;;
18738;SDS011;9498;51.862;19.460;2023-04-01T07:42:24;23.43;;;12.07;;
18738;SDS011;9498;51.862;19.460;2023-04-01T07:44:54;23.40;;;11.27;;
18738;SDS011;9498;51.862;19.460;2023-04-01T07:47:33;21.10;;;11.30;;
18738;SDS011;9498;51.862;19.460;2023-04-01T07:50:03;23.50;;;11.17;;
18738;SDS011;9498;51.862;19.460;2023-04-01T07:52:33;23.10;;;12.37;;
18738;SDS011;9498;51.862;19.460;2023-04-01T07:55:04;21.67;;;11.67;;
18738;SDS011;9498;51.862;19.460;2023-04-01T07:57:35;21.90;;;11.23;;
18738;SDS011;9498;51.862;19.460;2023-04-01T08:00:06;21.23;;;11.47;;
18738;SDS011;9498;51.862;19.460;2023-04-01T08:02:41;22.23;;;11.20;;
18738;SDS011;9498;51.862;19.460;2023-04-01T08:05:14;22.00;;;11.53;;
18738;SDS011;9498;51.862;19.460;2023-04-01T08:07:44;26.20;;;11.97;;
18738;SDS011;9498;51.862;19.460;2023-04-01T08:10:13;23.53;;;11.77;;
18738;SDS011;9498;51.862;19.460;2023-04-01T08:12:48;21.20;;;10.27;;
18738;SDS011;9498;51.862;19.460;2023-04-01T08:15:19;25.57;;;11.87;;
18738;SDS011;9498;51.862;19.460;2023-04-01T08:17:52;24.20;;;11.27;;
18738;SDS011;9498;51.862;19.460;2023-04-01T08:20:25;23.67;;;11.47;;
18738;SDS011;9498;51.862;19.460;2023-04-01T08:22:57;26.83;;;10.97;;
18738;SDS011;9498;51.862;19.460;2023-04-01T08:25:26;24.93;;;11.83;;
18738;SDS011;9498;51.862;19.460;2023-04-01T08:27:56;24.50;;;11.40;;
18738;SDS011;9498;51.862;19.460;2023-04-01T08:30:26;21.20;;;11.17;;
18738;SDS011;9498;51.862;19.460;2023-04-01T08:32:55;26.03;;;11.43;;
18738;SDS011;9498;51.862;19.460;2023-04-01T08:35:27;25.50;;;11.37;;
18738;SDS011;9498;51.862;19.460;2023-04-01T08:37:57;20.27;;;10.13;;
18738;SDS011;9498;51.862;19.460;2023-04-01T08:40:52;21.63;;;10.07;;
18738;SDS011;9498;51.862;19.460;2023-04-01T08:43:25;24.53;;;10.40;;
18738;SDS011;9498;51.862;19.460;2023-04-01T08:46:06;20.67;;;11.10;;
18738;SDS011;9498;51.862;19.460;2023-04-01T08:48:53;27.37;;;12.80;;
18738;SDS011;9498;51.862;19.460;2023-04-01T08:51:43;27.60;;;13.07;;
18738;SDS011;9498;51.862;19.460;2023-04-01T08:54:18;29.33;;;13.57;;
18738;SDS011;9498;51.862;19.460;2023-04-01T08:56:53;20.97;;;10.83;;
18738;SDS011;9498;51.862;19.460;2023-04-01T09:05:39;20.43;;;11.93;;
18738;SDS011;9498;51.862;19.460;2023-04-01T09:08:16;22.20;;;11.33;;
18738;SDS011;9498;51.862;19.460;2023-04-01T09:13:31;18.50;;;10.57;;
18738;SDS011;9498;51.862;19.460;2023-04-01T09:16:08;17.77;;;9.73;;
18738;SDS011;9498;51.862;19.460;2023-04-01T09:21:48;20.83;;;9.43;;
18738;SDS011;9498;51.862;19.460;2023-04-01T09:24:24;20.80;;;10.37;;
18738;SDS011;9498;51.862;19.460;2023-04-01T09:26:59;24.30;;;11.90;;
18738;SDS011;9498;51.862;19.460;2023-04-01T09:32:14;28.80;;;12.53;;
18738;SDS011;9498;51.862;19.460;2023-04-01T09:34:51;23.93;;;12.23;;
18738;SDS011;9498;51.862;19.460;2023-04-01T09:37:21;21.97;;;11.30;;
18738;SDS011;9498;51.862;19.460;2023-04-01T09:40:13;23.37;;;11.90;;
18738;SDS011;9498;51.862;19.460;2023-04-01T09:42:43;24.13;;;12.13;;
18738;SDS011;9498;51.862;19.460;2023-04-01T09:45:15;24.83;;;12.30;;
18738;SDS011;9498;51.862;19.460;2023-04-01T09:47:48;26.23;;;12.43;;
18738;SDS011;9498;51.862;19.460;2023-04-01T09:50:30;32.00;;;14.37;;
18738;SDS011;9498;51.862;19.460;2023-04-01T09:53:04;29.90;;;13.30;;
18738;SDS011;9498;51.862;19.460;2023-04-01T09:55:51;26.67;;;13.63;;
18738;SDS011;9498;51.862;19.460;2023-04-01T09:58:32;27.90;;;14.03;;
18738;SDS011;9498;51.862;19.460;2023-04-01T10:07:35;32.97;;;14.43;;
18738;SDS011;9498;51.862;19.460;2023-04-01T10:10:15;34.93;;;15.03;;
18738;SDS011;9498;51.862;19.460;2023-04-01T10:12:57;28.73;;;13.70;;
18738;SDS011;9498;51.862;19.460;2023-04-01T10:18:38;35.13;;;14.93;;
18738;SDS011;9498;51.862;19.460;2023-04-01T10:24:17;33.77;;;14.90;;
18738;SDS011;9498;51.862;19.460;2023-04-01T10:30:03;30.43;;;14.33;;
18738;SDS011;9498;51.862;19.460;2023-04-01T10:32:37;28.23;;;13.70;;
18738;SDS011;9498;51.862;19.460;2023-04-01T10:35:20;29.37;;;13.50;;
18738;SDS011;9498;51.862;19.460;2023-04-01T10:38:02;24.57;;;11.40;;
18738;SDS011;9498;51.862;19.460;2023-04-01T10:40:38;15.87;;;8.40;;
18738;SDS011;9498;51.862;19.460;2023-04-01T10:43:26;13.07;;;7.93;;
18738;SDS011;9498;51.862;19.460;2023-04-01T10:46:01;14.80;;;8.40;;
18738;SDS011;9498;51.862;19.460;2023-04-01T10:48:45;17.63;;;8.90;;
18738;SDS011;9498;51.862;19.460;2023-04-01T10:51:17;16.60;;;9.07;;
18738;SDS011;9498;51.862;19.460;2023-04-01T10:53:55;17.75;;;9.45;;
18738;SDS011;9498;51.862;19.460;2023-04-01T10:56:33;22.50;;;11.48;;
18738;SDS011;9498;51.862;19.460;2023-04-01T10:59:10;19.17;;;10.17;;
18738;SDS011;9498;51.862;19.460;2023-04-01T11:04:51;9.87;;;5.80;;
18738;SDS011;9498;51.862;19.460;2023-04-01T11:10:18;13.83;;;7.17;;
18738;SDS011;9498;51.862;19.460;2023-04-01T11:13:19;18.67;;;7.17;;
18738;SDS011;9498;51.862;19.460;2023-04-01T11:24:29;8.07;;;4.57;;
18738;SDS011;9498;51.862;19.460;2023-04-01T11:27:04;8.20;;;4.80;;
18738;SDS011;9498;51.862;19.460;2023-04-01T11:29:41;9.77;;;5.23;;
18738;SDS011;9498;51.862;19.460;2023-04-01T11:32:19;9.53;;;5.40;;
18738;SDS011;9498;51.862;19.460;2023-04-01T11:34:51;11.63;;;5.77;;
18738;SDS011;9498;51.862;19.460;2023-04-01T11:37:25;11.63;;;6.03;;
18738;SDS011;9498;51.862;19.460;2023-04-01T11:39:59;12.03;;;6.50;;
18738;SDS011;9498;51.862;19.460;2023-04-01T11:42:35;10.70;;;6.03;;
18738;SDS011;9498;51.862;19.460;2023-04-01T11:45:12;9.20;;;5.83;;
18738;SDS011;9498;51.862;19.460;2023-04-01T11:48:07;10.70;;;5.93;;
18738;SDS011;9498;51.862;19.460;2023-04-01T11:50:39;11.03;;;6.10;;
18738;SDS011;9498;51.862;19.460;2023-04-01T11:53:21;10.23;;;5.70;;
18738;SDS011;9498;51.862;19.460;2023-04-01T11:55:54;8.50;;;5.27;;
18738;SDS011;9498;51.862;19.460;2023-04-01T11:58:34;7.63;;;4.50;;
18738;SDS011;9498;51.862;19.460;2023-04-01T12:01:06;7.80;;;4.67;;
18738;SDS011;9498;51.862;19.460;2023-04-01T12:03:46;6.53;;;4.10;;
18738;SDS011;9498;51.862;19.460;2023-04-01T12:06:16;5.87;;;4.00;;
18738;SDS011;9498;51.862;19.460;2023-04-01T12:08:46;7.03;;;4.27;;
18738;SDS011;9498;51.862;19.460;2023-04-01T12:11:21;8.63;;;4.30;;
18738;SDS011;9498;51.862;19.460;2023-04-01T12:13:53;7.13;;;4.40;;
18738;SDS011;9498;51.862;19.460;2023-04-01T12:16:29;7.70;;;4.27;;
18738;SDS011;9498;51.862;19.460;2023-04-01T12:19:01;6.37;;;4.43;;
18738;SDS011;9498;51.862;19.460;2023-04-01T12:21:32;6.93;;;4.63;;
18738;SDS011;9498;51.862;19.460;2023-04-01T12:27:19;14.17;;;6.37;;
18738;SDS011;9498;51.862;19.460;2023-04-01T12:29:54;11.20;;;6.43;;
18738;SDS011;9498;51.862;19.460;2023-04-01T12:32:29;12.17;;;6.90;;
18738;SDS011;9498;51.862;19.460;2023-04-01T12:35:05;14.50;;;7.60;;
18738;SDS011;9498;51.862;19.460;2023-04-01T12:37:39;14.53;;;7.60;;
18738;SDS011;9498;51.862;19.460;2023-04-01T12:40:24;15.47;;;8.17;;
18738;SDS011;9498;51.862;19.460;2023-04-01T12:42:57;18.13;;;7.67;;
18738;SDS011;9498;51.862;19.460;2023-04-01T12:45:28;15.30;;;7.87;;
18738;SDS011;9498;51.862;19.460;2023-04-01T12:48:03;14.47;;;7.77;;
18738;SDS011;9498;51.862;19.460;2023-04-01T12:50:35;14.00;;;7.70;;
18738;SDS011;9498;51.862;19.460;2023-04-01T12:53:09;14.10;;;7.70;;
18738;SDS011;9498;51.862;19.460;2023-04-01T12:55:40;11.93;;;7.53;;
18738;SDS011;9498;51.862;19.460;2023-04-01T12:58:17;12.93;;;7.50;;
18738;SDS011;9498;51.862;19.460;2023-04-01T13:00:53;15.00;;;7.63;;
18738;SDS011;9498;51.862;19.460;2023-04-01T13:03:27;17.37;;;8.73;;
18738;SDS011;9498;51.862;19.460;2023-04-01T13:08:43;19.73;;;11.25;;
18738;SDS011;9498;51.862;19.460;2023-04-01T13:11:15;20.30;;;11.30;;
18738;SDS011;9498;51.862;19.460;2023-04-01T13:16:43;22.07;;;11.03;;
18738;SDS011;9498;51.862;19.460;2023-04-01T13:19:13;22.47;;;11.40;;
18738;SDS011;9498;51.862;19.460;2023-04-01T13:21:49;22.73;;;10.93;;
18738;SDS011;9498;51.862;19.460;2023-04-01T13:24:24;22.87;;;10.93;;
18738;SDS011;9498;51.862;19.460;2023-04-01T13:26:54;22.80;;;11.40;;
18738;SDS011;9498;51.862;19.460;2023-04-01T13:29:24;25.87;;;11.17;;
18738;SDS011;9498;51.862;19.460;2023-04-01T13:31:56;24.27;;;11.27;;
18738;SDS011;9498;51.862;19.460;2023-04-01T13:34:37;25.50;;;11.77;;
18738;SDS011;9498;51.862;19.460;2023-04-01T13:37:15;22.17;;;10.93;;
18738;SDS011;9498;51.862;19.460;2023-04-01T13:39:52;19.93;;;10.47;;
18738;SDS011;9498;51.862;19.460;2023-04-01T13:42:24;20.90;;;9.97;;
18738;SDS011;9498;51.862;19.460;2023-04-01T13:44:54;20.73;;;9.63;;
18738;SDS011;9498;51.862;19.460;2023-04-01T13:50:32;15.77;;;8.40;;
18738;SDS011;9498;51.862;19.460;2023-04-01T13:53:09;25.97;;;10.57;;
18738;SDS011;9498;51.862;19.460;2023-04-01T13:55:46;22.03;;;11.47;;
18738;SDS011;9498;51.862;19.460;2023-04-01T13:58:24;11.93;;;7.20;;
18738;SDS011;9498;51.862;19.460;2023-04-01T14:00:56;14.20;;;6.80;;
18738;SDS011;9498;51.862;19.460;2023-04-01T14:03:30;15.30;;;8.00;;
18738;SDS011;9498;51.862;19.460;2023-04-01T14:06:02;19.27;;;9.07;;
18738;SDS011;9498;51.862;19.460;2023-04-01T14:11:24;20.30;;;11.07;;
18738;SDS011;9498;51.862;19.460;2023-04-01T14:13:56;20.30;;;10.20;;
18738;SDS011;9498;51.862;19.460;2023-04-01T14:16:40;21.23;;;10.30;;
18738;SDS011;9498;51.862;19.460;2023-04-01T14:19:12;18.23;;;10.10;;
18738;SDS011;9498;51.862;19.460;2023-04-01T14:21:46;22.13;;;10.53;;
18738;SDS011;9498;51.862;19.460;2023-04-01T14:24:20;18.47;;;9.47;;
18738;SDS011;9498;51.862;19.460;2023-04-01T14:26:57;19.80;;;9.70;;
18738;SDS011;9498;51.862;19.460;2023-04-01T14:29:30;19.23;;;9.30;;
18738;SDS011;9498;51.862;19.460;2023-04-01T14:32:06;20.43;;;9.87;;
18738;SDS011;9498;51.862;19.460;2023-04-01T14:34:43;20.70;;;9.90;;
18738;SDS011;9498;51.862;19.460;2023-04-01T14:37:15;24.60;;;12.27;;
18738;SDS011;9498;51.862;19.460;2023-04-01T14:45:44;37.50;;;15.70;;
18738;SDS011;9498;51.862;19.460;2023-04-01T14:48:17;32.80;;;15.67;;
18738;SDS011;9498;51.862;19.460;2023-04-01T14:50:45;36.80;;;16.37;;
18738;SDS011;9498;51.862;19.460;2023-04-01T14:53:16;44.43;;;18.37;;
18738;SDS011;9498;51.862;19.460;2023-04-01T14:55:51;40.50;;;18.37;;
18738;SDS011;9498;51.862;19.460;2023-04-01T14:58:19;45.37;;;17.70;;
18738;SDS011;9498;51.862;19.460;2023-04-01T15:00:54;39.00;;;17.57;;
18738;SDS011;9498;51.862;19.460;2023-04-01T15:03:26;42.87;;;17.77;;
18738;SDS011;9498;51.862;19.460;2023-04-01T15:05:55;45.67;;;19.43;;
18738;SDS011;9498;51.862;19.460;2023-04-01T15:08:24;49.17;;;20.07;;
18738;SDS011;9498;51.862;19.460;2023-04-01T15:13:56;60.33;;;26.08;;
18738;SDS011;9498;51.862;19.460;2023-04-01T15:16:27;47.60;;;20.73;;
18738;SDS011;9498;51.862;19.460;2023-04-01T15:19:01;54.45;;;22.92;;
18738;SDS011;9498;51.862;19.460;2023-04-01T15:21:37;56.50;;;22.63;;
18738;SDS011;9498;51.862;19.460;2023-04-01T15:24:10;52.57;;;22.23;;
18738;SDS011;9498;51.862;19.460;2023-04-01T15:26:46;60.30;;;22.87;;
18738;SDS011;9498;51.862;19.460;2023-04-01T15:29:24;58.13;;;22.67;;
18738;SDS011;9498;51.862;19.460;2023-04-01T15:31:56;65.73;;;26.43;;
18738;SDS011;9498;51.862;19.460;2023-04-01T15:34:30;62.03;;;24.97;;
18738;SDS011;9498;51.862;19.460;2023-04-01T15:37:00;62.17;;;25.07;;
18738;SDS011;9498;51.862;19.460;2023-04-01T15:39:31;65.10;;;25.27;;
18738;SDS011;9498;51.862;19.460;2023-04-01T15:42:09;60.73;;;24.00;;
18738;SDS011;9498;51.862;19.460;2023-04-01T15:44:46;58.13;;;24.17;;
18738;SDS011;9498;51.862;19.460;2023-04-01T15:47:30;58.37;;;22.10;;
18738;SDS011;9498;51.862;19.460;2023-04-01T15:50:01;55.40;;;22.47;;
18738;SDS011;9498;51.862;19.460;2023-04-01T15:52:35;60.43;;;23.10;;
18738;SDS011;9498;51.862;19.460;2023-04-01T15:55:10;64.90;;;23.50;;
18738;SDS011;9498;51.862;19.460;2023-04-01T15:57:43;62.20;;;25.17;;
18738;SDS011;9498;51.862;19.460;2023-04-01T16:00:22;65.17;;;24.93;;
18738;SDS011;9498;51.862;19.460;2023-04-01T16:03:08;57.90;;;23.17;;
18738;SDS011;9498;51.862;19.460;2023-04-01T16:05:37;58.77;;;23.17;;